Terminal Aerodrome Forecast
Issued by NWS

Home | Current Version | Previous Version | Text Only | Print | Product List | Glossary On
Versions: 1 2 3 4 5 6 7 8 9 10 11 12 13
601
FTUS42 TJSJ 220540
TAFJPS
TAF
TJPS 220540Z 2206/2306 05005KT P6SM SKC
     FM221300 13008KT P6SM FEW030
     FM221630 13010KT P6SM VCSH SCT030 SCT060
     FM222330 05005KT P6SM SCT060
      AMD NOT SKED 2212/2303=

USA.gov is the U.S. government's official web portal to all federal, state and local government web resources and services.